sensor_id;sensor_type;location;lat;lon;timestamp;P1;durP1;ratioP1;P2;durP2;ratioP2
52956;SDS011;38819;42.692;23.342;2024-01-27T00:01:01;10.10;;;3.38;;
52956;SDS011;38819;42.692;23.342;2024-01-27T00:03:27;7.13;;;2.90;;
52956;SDS011;38819;42.692;23.342;2024-01-27T00:05:52;6.43;;;2.78;;
52956;SDS011;38819;42.692;23.342;2024-01-27T00:08:17;8.75;;;3.13;;
52956;SDS011;38819;42.692;23.342;2024-01-27T00:10:43;9.95;;;3.63;;
52956;SDS011;38819;42.692;23.342;2024-01-27T00:13:11;6.13;;;3.33;;
52956;SDS011;38819;42.692;23.342;2024-01-27T00:15:36;7.72;;;3.60;;
52956;SDS011;38819;42.692;23.342;2024-01-27T00:18:01;7.32;;;3.00;;
52956;SDS011;38819;42.692;23.342;2024-01-27T00:20:27;11.10;;;3.90;;
52956;SDS011;38819;42.692;23.342;2024-01-27T00:22:52;8.60;;;3.80;;
52956;SDS011;38819;42.692;23.342;2024-01-27T00:25:18;7.97;;;3.38;;
52956;SDS011;38819;42.692;23.342;2024-01-27T00:27:43;7.93;;;3.53;;
52956;SDS011;38819;42.692;23.342;2024-01-27T00:30:08;8.88;;;3.20;;
52956;SDS011;38819;42.692;23.342;2024-01-27T00:32:36;11.98;;;3.40;;
52956;SDS011;38819;42.692;23.342;2024-01-27T00:35:02;13.45;;;3.58;;
52956;SDS011;38819;42.692;23.342;2024-01-27T00:37:28;8.60;;;3.03;;
52956;SDS011;38819;42.692;23.342;2024-01-27T00:39:54;7.00;;;3.08;;
52956;SDS011;38819;42.692;23.342;2024-01-27T00:42:19;10.93;;;3.08;;
52956;SDS011;38819;42.692;23.342;2024-01-27T00:44:49;9.35;;;3.80;;
52956;SDS011;38819;42.692;23.342;2024-01-27T00:47:15;12.57;;;3.97;;
52956;SDS011;38819;42.692;23.342;2024-01-27T00:49:40;7.78;;;3.22;;
52956;SDS011;38819;42.692;23.342;2024-01-27T00:52:05;9.55;;;3.58;;
52956;SDS011;38819;42.692;23.342;2024-01-27T00:54:31;10.07;;;3.80;;
52956;SDS011;38819;42.692;23.342;2024-01-27T00:56:56;4.45;;;3.05;;
52956;SDS011;38819;42.692;23.342;2024-01-27T00:59:21;12.55;;;3.63;;
52956;SDS011;38819;42.692;23.342;2024-01-27T01:01:47;15.23;;;3.47;;
52956;SDS011;38819;42.692;23.342;2024-01-27T01:04:13;9.82;;;3.88;;
52956;SDS011;38819;42.692;23.342;2024-01-27T01:06:39;11.98;;;3.72;;
52956;SDS011;38819;42.692;23.342;2024-01-27T01:09:05;11.50;;;3.70;;
52956;SDS011;38819;42.692;23.342;2024-01-27T01:11:30;11.25;;;3.67;;
52956;SDS011;38819;42.692;23.342;2024-01-27T01:13:56;7.95;;;3.40;;
52956;SDS011;38819;42.692;23.342;2024-01-27T01:16:21;9.50;;;3.65;;
52956;SDS011;38819;42.692;23.342;2024-01-27T01:18:47;12.48;;;3.92;;
52956;SDS011;38819;42.692;23.342;2024-01-27T01:21:12;11.82;;;3.92;;
52956;SDS011;38819;42.692;23.342;2024-01-27T01:23:38;15.45;;;3.28;;
52956;SDS011;38819;42.692;23.342;2024-01-27T01:26:03;16.13;;;4.50;;
52956;SDS011;38819;42.692;23.342;2024-01-27T01:28:29;12.35;;;3.22;;
52956;SDS011;38819;42.692;23.342;2024-01-27T01:30:54;8.32;;;3.58;;
52956;SDS011;38819;42.692;23.342;2024-01-27T01:33:20;7.40;;;3.55;;
52956;SDS011;38819;42.692;23.342;2024-01-27T01:35:46;13.90;;;3.58;;
52956;SDS011;38819;42.692;23.342;2024-01-27T01:38:11;7.63;;;3.22;;
52956;SDS011;38819;42.692;23.342;2024-01-27T01:40:37;8.15;;;3.45;;
52956;SDS011;38819;42.692;23.342;2024-01-27T01:43:02;12.15;;;4.45;;
52956;SDS011;38819;42.692;23.342;2024-01-27T01:45:29;7.40;;;2.47;;
52956;SDS011;38819;42.692;23.342;2024-01-27T01:47:54;9.93;;;2.97;;
52956;SDS011;38819;42.692;23.342;2024-01-27T01:50:20;12.50;;;2.90;;
52956;SDS011;38819;42.692;23.342;2024-01-27T01:52:47;8.57;;;3.28;;
52956;SDS011;38819;42.692;23.342;2024-01-27T01:55:14;6.65;;;3.35;;
52956;SDS011;38819;42.692;23.342;2024-01-27T01:57:41;6.78;;;3.03;;
52956;SDS011;38819;42.692;23.342;2024-01-27T02:00:08;9.82;;;3.42;;
52956;SDS011;38819;42.692;23.342;2024-01-27T02:02:34;10.32;;;3.30;;
52956;SDS011;38819;42.692;23.342;2024-01-27T02:04:59;9.63;;;3.17;;
52956;SDS011;38819;42.692;23.342;2024-01-27T02:07:25;7.80;;;2.95;;
52956;SDS011;38819;42.692;23.342;2024-01-27T02:09:50;14.70;;;4.43;;
52956;SDS011;38819;42.692;23.342;2024-01-27T02:12:15;11.15;;;3.50;;
52956;SDS011;38819;42.692;23.342;2024-01-27T02:14:41;7.85;;;3.10;;
52956;SDS011;38819;42.692;23.342;2024-01-27T02:17:06;8.43;;;3.30;;
52956;SDS011;38819;42.692;23.342;2024-01-27T02:19:31;7.50;;;3.10;;
52956;SDS011;38819;42.692;23.342;2024-01-27T02:21:57;15.13;;;3.72;;
52956;SDS011;38819;42.692;23.342;2024-01-27T02:24:22;7.40;;;3.25;;
52956;SDS011;38819;42.692;23.342;2024-01-27T02:26:48;9.15;;;3.38;;
52956;SDS011;38819;42.692;23.342;2024-01-27T02:29:13;7.35;;;3.10;;
52956;SDS011;38819;42.692;23.342;2024-01-27T02:31:38;5.47;;;2.97;;
52956;SDS011;38819;42.692;23.342;2024-01-27T02:34:04;13.52;;;3.33;;
52956;SDS011;38819;42.692;23.342;2024-01-27T02:36:29;11.07;;;3.78;;
52956;SDS011;38819;42.692;23.342;2024-01-27T02:38:55;12.13;;;4.50;;
52956;SDS011;38819;42.692;23.342;2024-01-27T02:41:20;16.50;;;5.13;;
52956;SDS011;38819;42.692;23.342;2024-01-27T02:43:45;13.35;;;4.20;;
52956;SDS011;38819;42.692;23.342;2024-01-27T02:46:11;14.00;;;4.68;;
52956;SDS011;38819;42.692;23.342;2024-01-27T02:48:41;10.57;;;3.87;;
52956;SDS011;38819;42.692;23.342;2024-01-27T02:51:09;11.60;;;4.40;;
52956;SDS011;38819;42.692;23.342;2024-01-27T02:53:35;12.52;;;4.65;;
52956;SDS011;38819;42.692;23.342;2024-01-27T02:56:00;17.17;;;5.10;;
52956;SDS011;38819;42.692;23.342;2024-01-27T02:58:26;16.75;;;4.53;;
52956;SDS011;38819;42.692;23.342;2024-01-27T03:00:51;13.57;;;4.80;;
52956;SDS011;38819;42.692;23.342;2024-01-27T03:03:17;12.00;;;4.18;;
52956;SDS011;38819;42.692;23.342;2024-01-27T03:05:42;7.60;;;4.00;;
52956;SDS011;38819;42.692;23.342;2024-01-27T03:08:08;9.80;;;3.70;;
52956;SDS011;38819;42.692;23.342;2024-01-27T03:10:33;12.25;;;3.83;;
52956;SDS011;38819;42.692;23.342;2024-01-27T03:12:58;8.60;;;3.40;;
52956;SDS011;38819;42.692;23.342;2024-01-27T03:15:24;5.70;;;3.10;;
52956;SDS011;38819;42.692;23.342;2024-01-27T03:17:49;11.32;;;3.80;;
52956;SDS011;38819;42.692;23.342;2024-01-27T03:20:14;12.68;;;3.70;;
52956;SDS011;38819;42.692;23.342;2024-01-27T03:22:40;9.55;;;3.03;;
52956;SDS011;38819;42.692;23.342;2024-01-27T03:25:07;11.43;;;3.43;;
52956;SDS011;38819;42.692;23.342;2024-01-27T03:27:33;4.15;;;2.63;;
52956;SDS011;38819;42.692;23.342;2024-01-27T03:29:59;9.18;;;2.63;;
52956;SDS011;38819;42.692;23.342;2024-01-27T03:32:26;8.20;;;2.85;;
52956;SDS011;38819;42.692;23.342;2024-01-27T03:34:52;15.90;;;2.88;;
52956;SDS011;38819;42.692;23.342;2024-01-27T03:37:17;10.38;;;3.15;;
52956;SDS011;38819;42.692;23.342;2024-01-27T03:39:43;4.75;;;2.53;;
52956;SDS011;38819;42.692;23.342;2024-01-27T03:42:08;7.93;;;3.03;;
52956;SDS011;38819;42.692;23.342;2024-01-27T03:44:33;10.18;;;3.03;;
52956;SDS011;38819;42.692;23.342;2024-01-27T03:46:59;5.50;;;2.60;;
52956;SDS011;38819;42.692;23.342;2024-01-27T03:49:24;5.63;;;2.42;;
52956;SDS011;38819;42.692;23.342;2024-01-27T03:51:50;5.60;;;2.53;;
52956;SDS011;38819;42.692;23.342;2024-01-27T03:54:15;7.80;;;2.78;;
52956;SDS011;38819;42.692;23.342;2024-01-27T03:56:41;10.23;;;3.20;;
52956;SDS011;38819;42.692;23.342;2024-01-27T03:59:06;10.23;;;2.78;;
52956;SDS011;38819;42.692;23.342;2024-01-27T04:01:34;5.57;;;2.75;;
52956;SDS011;38819;42.692;23.342;2024-01-27T04:04:01;7.35;;;2.33;;
52956;SDS011;38819;42.692;23.342;2024-01-27T04:06:26;8.98;;;2.47;;
52956;SDS011;38819;42.692;23.342;2024-01-27T04:08:51;6.47;;;2.45;;
52956;SDS011;38819;42.692;23.342;2024-01-27T04:11:23;5.38;;;2.40;;
52956;SDS011;38819;42.692;23.342;2024-01-27T04:13:49;5.00;;;2.80;;
52956;SDS011;38819;42.692;23.342;2024-01-27T04:16:17;6.80;;;2.63;;
52956;SDS011;38819;42.692;23.342;2024-01-27T04:18:43;5.65;;;2.30;;
52956;SDS011;38819;42.692;23.342;2024-01-27T04:21:08;6.10;;;2.22;;
52956;SDS011;38819;42.692;23.342;2024-01-27T04:23:33;3.50;;;2.03;;
52956;SDS011;38819;42.692;23.342;2024-01-27T04:25:59;6.45;;;2.50;;
52956;SDS011;38819;42.692;23.342;2024-01-27T04:28:25;5.85;;;2.40;;
52956;SDS011;38819;42.692;23.342;2024-01-27T04:30:50;4.07;;;2.13;;
52956;SDS011;38819;42.692;23.342;2024-01-27T04:33:15;5.97;;;2.67;;
52956;SDS011;38819;42.692;23.342;2024-01-27T04:35:41;4.32;;;2.10;;
52956;SDS011;38819;42.692;23.342;2024-01-27T04:38:08;8.23;;;2.95;;
52956;SDS011;38819;42.692;23.342;2024-01-27T04:40:36;8.27;;;2.90;;
52956;SDS011;38819;42.692;23.342;2024-01-27T04:43:01;6.97;;;3.53;;
52956;SDS011;38819;42.692;23.342;2024-01-27T04:45:28;7.32;;;2.90;;
52956;SDS011;38819;42.692;23.342;2024-01-27T04:47:53;6.35;;;2.60;;
52956;SDS011;38819;42.692;23.342;2024-01-27T04:50:19;4.22;;;2.85;;
52956;SDS011;38819;42.692;23.342;2024-01-27T04:52:45;7.38;;;2.85;;
52956;SDS011;38819;42.692;23.342;2024-01-27T04:55:10;11.23;;;2.80;;
52956;SDS011;38819;42.692;23.342;2024-01-27T04:57:36;7.60;;;2.67;;
52956;SDS011;38819;42.692;23.342;2024-01-27T05:00:01;9.20;;;3.20;;
52956;SDS011;38819;42.692;23.342;2024-01-27T05:04:54;8.52;;;2.55;;
52956;SDS011;38819;42.692;23.342;2024-01-27T05:07:19;8.75;;;2.75;;
52956;SDS011;38819;42.692;23.342;2024-01-27T05:09:45;6.07;;;2.50;;
52956;SDS011;38819;42.692;23.342;2024-01-27T05:12:10;6.78;;;3.03;;
52956;SDS011;38819;42.692;23.342;2024-01-27T05:14:35;5.60;;;2.72;;
52956;SDS011;38819;42.692;23.342;2024-01-27T05:17:01;6.57;;;2.63;;
52956;SDS011;38819;42.692;23.342;2024-01-27T05:19:26;7.10;;;3.03;;
52956;SDS011;38819;42.692;23.342;2024-01-27T05:21:51;7.70;;;3.80;;
52956;SDS011;38819;42.692;23.342;2024-01-27T05:24:17;6.50;;;2.80;;
52956;SDS011;38819;42.692;23.342;2024-01-27T05:26:42;7.53;;;2.90;;
52956;SDS011;38819;42.692;23.342;2024-01-27T05:29:08;6.32;;;3.58;;
52956;SDS011;38819;42.692;23.342;2024-01-27T05:31:33;8.63;;;3.15;;
52956;SDS011;38819;42.692;23.342;2024-01-27T05:33:59;11.30;;;3.55;;
52956;SDS011;38819;42.692;23.342;2024-01-27T05:36:25;9.40;;;3.33;;
52956;SDS011;38819;42.692;23.342;2024-01-27T05:38:51;6.75;;;3.35;;
52956;SDS011;38819;42.692;23.342;2024-01-27T05:41:16;5.63;;;3.45;;
52956;SDS011;38819;42.692;23.342;2024-01-27T05:43:42;6.68;;;3.85;;
52956;SDS011;38819;42.692;23.342;2024-01-27T05:46:08;9.07;;;4.50;;
52956;SDS011;38819;42.692;23.342;2024-01-27T05:48:34;11.50;;;3.95;;
52956;SDS011;38819;42.692;23.342;2024-01-27T05:51:00;11.02;;;4.22;;
52956;SDS011;38819;42.692;23.342;2024-01-27T05:53:26;9.65;;;3.92;;
52956;SDS011;38819;42.692;23.342;2024-01-27T05:55:52;9.18;;;4.35;;
52956;SDS011;38819;42.692;23.342;2024-01-27T05:58:21;9.50;;;3.88;;
52956;SDS011;38819;42.692;23.342;2024-01-27T06:00:47;8.15;;;4.63;;
52956;SDS011;38819;42.692;23.342;2024-01-27T06:03:13;13.23;;;4.97;;
52956;SDS011;38819;42.692;23.342;2024-01-27T06:05:39;6.70;;;4.20;;
52956;SDS011;38819;42.692;23.342;2024-01-27T06:08:05;8.75;;;4.75;;
52956;SDS011;38819;42.692;23.342;2024-01-27T06:10:32;14.63;;;4.90;;
52956;SDS011;38819;42.692;23.342;2024-01-27T06:12:57;12.63;;;5.10;;
52956;SDS011;38819;42.692;23.342;2024-01-27T06:15:22;11.07;;;4.72;;
52956;SDS011;38819;42.692;23.342;2024-01-27T06:17:48;14.30;;;4.40;;
52956;SDS011;38819;42.692;23.342;2024-01-27T06:20:13;12.07;;;4.68;;
52956;SDS011;38819;42.692;23.342;2024-01-27T06:22:41;12.05;;;4.90;;
52956;SDS011;38819;42.692;23.342;2024-01-27T06:25:07;9.10;;;4.68;;
52956;SDS011;38819;42.692;23.342;2024-01-27T06:27:33;10.27;;;5.38;;
52956;SDS011;38819;42.692;23.342;2024-01-27T06:29:58;13.10;;;5.18;;
52956;SDS011;38819;42.692;23.342;2024-01-27T06:32:23;14.20;;;5.63;;
52956;SDS011;38819;42.692;23.342;2024-01-27T06:34:49;12.88;;;5.45;;
52956;SDS011;38819;42.692;23.342;2024-01-27T06:37:14;15.80;;;5.72;;
52956;SDS011;38819;42.692;23.342;2024-01-27T06:39:39;10.60;;;4.78;;
52956;SDS011;38819;42.692;23.342;2024-01-27T06:42:05;11.77;;;5.25;;
52956;SDS011;38819;42.692;23.342;2024-01-27T06:44:30;10.05;;;5.20;;
52956;SDS011;38819;42.692;23.342;2024-01-27T06:46:55;5.65;;;3.33;;
52956;SDS011;38819;42.692;23.342;2024-01-27T06:49:21;7.90;;;2.90;;
52956;SDS011;38819;42.692;23.342;2024-01-27T06:51:46;3.05;;;2.42;;
52956;SDS011;38819;42.692;23.342;2024-01-27T06:54:12;3.33;;;2.10;;
52956;SDS011;38819;42.692;23.342;2024-01-27T06:56:37;4.15;;;2.25;;
52956;SDS011;38819;42.692;23.342;2024-01-27T06:59:03;4.35;;;2.08;;
52956;SDS011;38819;42.692;23.342;2024-01-27T07:01:28;3.17;;;2.33;;
52956;SDS011;38819;42.692;23.342;2024-01-27T07:03:54;3.95;;;1.92;;
52956;SDS011;38819;42.692;23.342;2024-01-27T07:06:19;3.35;;;1.70;;
52956;SDS011;38819;42.692;23.342;2024-01-27T07:08:45;4.53;;;1.73;;
52956;SDS011;38819;42.692;23.342;2024-01-27T07:11:10;3.33;;;2.03;;
52956;SDS011;38819;42.692;23.342;2024-01-27T07:13:37;3.10;;;1.92;;
52956;SDS011;38819;42.692;23.342;2024-01-27T07:16:04;3.85;;;2.00;;
52956;SDS011;38819;42.692;23.342;2024-01-27T07:18:30;2.93;;;1.80;;
52956;SDS011;38819;42.692;23.342;2024-01-27T07:20:55;3.05;;;1.70;;
52956;SDS011;38819;42.692;23.342;2024-01-27T07:23:21;4.35;;;1.88;;
52956;SDS011;38819;42.692;23.342;2024-01-27T07:25:46;2.00;;;1.45;;
52956;SDS011;38819;42.692;23.342;2024-01-27T07:28:11;2.22;;;1.67;;
52956;SDS011;38819;42.692;23.342;2024-01-27T07:30:37;2.95;;;1.80;;
52956;SDS011;38819;42.692;23.342;2024-01-27T07:33:03;2.50;;;1.75;;
52956;SDS011;38819;42.692;23.342;2024-01-27T07:35:29;3.33;;;2.20;;
52956;SDS011;38819;42.692;23.342;2024-01-27T07:37:54;2.38;;;1.73;;
52956;SDS011;38819;42.692;23.342;2024-01-27T07:40:20;3.05;;;1.90;;
52956;SDS011;38819;42.692;23.342;2024-01-27T07:42:45;4.00;;;2.08;;
52956;SDS011;38819;42.692;23.342;2024-01-27T07:45:10;3.15;;;1.73;;
52956;SDS011;38819;42.692;23.342;2024-01-27T07:47:36;3.95;;;1.63;;
52956;SDS011;38819;42.692;23.342;2024-01-27T07:50:01;4.00;;;2.20;;
52956;SDS011;38819;42.692;23.342;2024-01-27T07:52:27;2.65;;;2.17;;
52956;SDS011;38819;42.692;23.342;2024-01-27T07:54:52;5.88;;;2.20;;
52956;SDS011;38819;42.692;23.342;2024-01-27T07:57:19;2.40;;;2.20;;
52956;SDS011;38819;42.692;23.342;2024-01-27T07:59:45;6.53;;;4.22;;
52956;SDS011;38819;42.692;23.342;2024-01-27T08:02:10;8.52;;;2.78;;
52956;SDS011;38819;42.692;23.342;2024-01-27T08:04:35;6.20;;;2.63;;
52956;SDS011;38819;42.692;23.342;2024-01-27T08:07:03;6.70;;;3.30;;
52956;SDS011;38819;42.692;23.342;2024-01-27T08:09:34;2.95;;;2.65;;
52956;SDS011;38819;42.692;23.342;2024-01-27T08:12:00;5.50;;;2.53;;
52956;SDS011;38819;42.692;23.342;2024-01-27T08:14:26;3.05;;;2.85;;
52956;SDS011;38819;42.692;23.342;2024-01-27T08:16:52;6.82;;;2.90;;
52956;SDS011;38819;42.692;23.342;2024-01-27T08:19:17;3.15;;;2.85;;
52956;SDS011;38819;42.692;23.342;2024-01-27T08:24:10;5.90;;;3.10;;
52956;SDS011;38819;42.692;23.342;2024-01-27T08:26:36;3.80;;;2.80;;
52956;SDS011;38819;42.692;23.342;2024-01-27T08:29:01;4.82;;;3.05;;
52956;SDS011;38819;42.692;23.342;2024-01-27T08:31:26;4.22;;;2.75;;
52956;SDS011;38819;42.692;23.342;2024-01-27T08:33:52;4.38;;;3.17;;
52956;SDS011;38819;42.692;23.342;2024-01-27T08:36:17;4.25;;;2.88;;
52956;SDS011;38819;42.692;23.342;2024-01-27T08:38:42;5.28;;;3.53;;
52956;SDS011;38819;42.692;23.342;2024-01-27T08:41:08;4.88;;;2.97;;
52956;SDS011;38819;42.692;23.342;2024-01-27T08:43:33;4.78;;;2.90;;
52956;SDS011;38819;42.692;23.342;2024-01-27T08:45:59;6.13;;;3.47;;
52956;SDS011;38819;42.692;23.342;2024-01-27T08:48:25;3.33;;;2.80;;
52956;SDS011;38819;42.692;23.342;2024-01-27T08:50:50;3.58;;;2.70;;
52956;SDS011;38819;42.692;23.342;2024-01-27T08:53:16;4.57;;;2.65;;
52956;SDS011;38819;42.692;23.342;2024-01-27T08:55:42;2.47;;;2.28;;
52956;SDS011;38819;42.692;23.342;2024-01-27T08:58:07;3.83;;;2.50;;
52956;SDS011;38819;42.692;23.342;2024-01-27T09:00:33;6.55;;;2.70;;
52956;SDS011;38819;42.692;23.342;2024-01-27T09:02:58;3.08;;;2.78;;
52956;SDS011;38819;42.692;23.342;2024-01-27T09:05:23;4.35;;;2.25;;
52956;SDS011;38819;42.692;23.342;2024-01-27T09:07:49;2.78;;;2.10;;
52956;SDS011;38819;42.692;23.342;2024-01-27T09:10:14;2.92;;;2.30;;
52956;SDS011;38819;42.692;23.342;2024-01-27T09:12:40;4.97;;;2.75;;
52956;SDS011;38819;42.692;23.342;2024-01-27T09:15:06;2.92;;;1.92;;
52956;SDS011;38819;42.692;23.342;2024-01-27T09:17:32;5.70;;;2.25;;
52956;SDS011;38819;42.692;23.342;2024-01-27T09:19:57;5.95;;;2.13;;
52956;SDS011;38819;42.692;23.342;2024-01-27T09:22:23;1.88;;;1.77;;
52956;SDS011;38819;42.692;23.342;2024-01-27T09:24:48;5.25;;;2.97;;
52956;SDS011;38819;42.692;23.342;2024-01-27T09:27:13;2.30;;;2.10;;
52956;SDS011;38819;42.692;23.342;2024-01-27T09:29:39;4.40;;;2.22;;
52956;SDS011;38819;42.692;23.342;2024-01-27T09:32:04;7.18;;;2.63;;
52956;SDS011;38819;42.692;23.342;2024-01-27T09:34:30;2.13;;;1.80;;
52956;SDS011;38819;42.692;23.342;2024-01-27T09:36:55;7.32;;;2.58;;
52956;SDS011;38819;42.692;23.342;2024-01-27T09:39:21;2.67;;;2.47;;
52956;SDS011;38819;42.692;23.342;2024-01-27T09:41:46;2.17;;;1.85;;
52956;SDS011;38819;42.692;23.342;2024-01-27T09:44:13;3.47;;;2.20;;
52956;SDS011;38819;42.692;23.342;2024-01-27T09:46:43;2.28;;;2.00;;
52956;SDS011;38819;42.692;23.342;2024-01-27T09:49:08;5.63;;;2.47;;
52956;SDS011;38819;42.692;23.342;2024-01-27T09:51:36;4.85;;;2.08;;
52956;SDS011;38819;42.692;23.342;2024-01-27T09:54:02;2.63;;;2.00;;
52956;SDS011;38819;42.692;23.342;2024-01-27T09:56:27;2.85;;;2.30;;
52956;SDS011;38819;42.692;23.342;2024-01-27T09:58:54;2.95;;;2.35;;
52956;SDS011;38819;42.692;23.342;2024-01-27T10:01:20;4.18;;;1.73;;
52956;SDS011;38819;42.692;23.342;2024-01-27T10:03:46;3.25;;;2.10;;
52956;SDS011;38819;42.692;23.342;2024-01-27T10:06:12;3.80;;;2.85;;
52956;SDS011;38819;42.692;23.342;2024-01-27T10:08:39;6.30;;;2.90;;
52956;SDS011;38819;42.692;23.342;2024-01-27T10:11:08;2.60;;;2.40;;
52956;SDS011;38819;42.692;23.342;2024-01-27T10:13:35;2.00;;;1.90;;
52956;SDS011;38819;42.692;23.342;2024-01-27T10:16:04;2.20;;;2.00;;
52956;SDS011;38819;42.692;23.342;2024-01-27T10:18:31;6.07;;;2.55;;
52956;SDS011;38819;42.692;23.342;2024-01-27T10:20:56;4.25;;;2.50;;
52956;SDS011;38819;42.692;23.342;2024-01-27T10:23:22;1.80;;;1.70;;
52956;SDS011;38819;42.692;23.342;2024-01-27T10:25:47;1.75;;;1.65;;
52956;SDS011;38819;42.692;23.342;2024-01-27T10:28:14;2.70;;;2.42;;
52956;SDS011;38819;42.692;23.342;2024-01-27T10:30:39;4.22;;;1.73;;
52956;SDS011;38819;42.692;23.342;2024-01-27T10:33:07;5.60;;;2.25;;
52956;SDS011;38819;42.692;23.342;2024-01-27T10:35:34;7.65;;;2.35;;
52956;SDS011;38819;42.692;23.342;2024-01-27T10:37:59;2.72;;;2.15;;
52956;SDS011;38819;42.692;23.342;2024-01-27T10:40:25;6.15;;;2.60;;
52956;SDS011;38819;42.692;23.342;2024-01-27T10:43:04;2.25;;;2.08;;
52956;SDS011;38819;42.692;23.342;2024-01-27T10:45:37;5.22;;;2.00;;
52956;SDS011;38819;42.692;23.342;2024-01-27T10:48:03;6.35;;;2.53;;
52956;SDS011;38819;42.692;23.342;2024-01-27T10:50:30;6.13;;;2.72;;
52956;SDS011;38819;42.692;23.342;2024-01-27T10:53:00;5.40;;;2.22;;
52956;SDS011;38819;42.692;23.342;2024-01-27T10:55:28;2.45;;;1.98;;
52956;SDS011;38819;42.692;23.342;2024-01-27T10:57:54;2.88;;;2.50;;
52956;SDS011;38819;42.692;23.342;2024-01-27T11:00:22;3.88;;;2.30;;
52956;SDS011;38819;42.692;23.342;2024-01-27T11:02:50;3.03;;;2.38;;
52956;SDS011;38819;42.692;23.342;2024-01-27T11:05:19;3.33;;;2.50;;
52956;SDS011;38819;42.692;23.342;2024-01-27T11:07:45;8.07;;;2.55;;
52956;SDS011;38819;42.692;23.342;2024-01-27T11:10:11;3.60;;;2.25;;
52956;SDS011;38819;42.692;23.342;2024-01-27T11:12:37;5.15;;;2.65;;
52956;SDS011;38819;42.692;23.342;2024-01-27T11:15:03;4.70;;;2.28;;
52956;SDS011;38819;42.692;23.342;2024-01-27T11:17:28;2.83;;;2.03;;
52956;SDS011;38819;42.692;23.342;2024-01-27T11:20:04;2.10;;;2.00;;
52956;SDS011;38819;42.692;23.342;2024-01-27T11:22:30;3.53;;;3.17;;
52956;SDS011;38819;42.692;23.342;2024-01-27T11:25:07;3.83;;;2.63;;
52956;SDS011;38819;42.692;23.342;2024-01-27T11:27:39;3.85;;;2.50;;
52956;SDS011;38819;42.692;23.342;2024-01-27T11:30:05;3.00;;;2.50;;
52956;SDS011;38819;42.692;23.342;2024-01-27T11:32:48;2.60;;;2.40;;
52956;SDS011;38819;42.692;23.342;2024-01-27T11:35:14;5.93;;;3.03;;
52956;SDS011;38819;42.692;23.342;2024-01-27T11:37:42;2.83;;;2.53;;
52956;SDS011;38819;42.692;23.342;2024-01-27T11:40:08;5.03;;;2.72;;
52956;SDS011;38819;42.692;23.342;2024-01-27T11:42:34;7.20;;;3.17;;
52956;SDS011;38819;42.692;23.342;2024-01-27T11:45:00;4.50;;;3.25;;
52956;SDS011;38819;42.692;23.342;2024-01-27T11:47:26;4.53;;;2.80;;
52956;SDS011;38819;42.692;23.342;2024-01-27T11:49:53;4.78;;;3.00;;
52956;SDS011;38819;42.692;23.342;2024-01-27T11:52:20;4.82;;;3.13;;
52956;SDS011;38819;42.692;23.342;2024-01-27T11:54:46;2.88;;;2.58;;
52956;SDS011;38819;42.692;23.342;2024-01-27T11:57:22;10.20;;;2.97;;
52956;SDS011;38819;42.692;23.342;2024-01-27T11:59:47;2.58;;;2.30;;
52956;SDS011;38819;42.692;23.342;2024-01-27T12:02:13;2.47;;;2.28;;
52956;SDS011;38819;42.692;23.342;2024-01-27T12:04:39;4.75;;;2.78;;
52956;SDS011;38819;42.692;23.342;2024-01-27T12:07:05;5.85;;;2.92;;
52956;SDS011;38819;42.692;23.342;2024-01-27T12:09:32;5.32;;;2.80;;
52956;SDS011;38819;42.692;23.342;2024-01-27T12:11:57;5.82;;;2.80;;
52956;SDS011;38819;42.692;23.342;2024-01-27T12:14:22;3.03;;;2.58;;
52956;SDS011;38819;42.692;23.342;2024-01-27T12:16:48;3.63;;;2.42;;
52956;SDS011;38819;42.692;23.342;2024-01-27T12:19:13;6.45;;;2.30;;
52956;SDS011;38819;42.692;23.342;2024-01-27T12:21:46;5.78;;;2.78;;
52956;SDS011;38819;42.692;23.342;2024-01-27T12:24:16;5.13;;;2.22;;
52956;SDS011;38819;42.692;23.342;2024-01-27T12:26:43;3.28;;;2.25;;
52956;SDS011;38819;42.692;23.342;2024-01-27T12:29:09;4.35;;;2.40;;
52956;SDS011;38819;42.692;23.342;2024-01-27T12:31:35;5.68;;;2.33;;
52956;SDS011;38819;42.692;23.342;2024-01-27T12:34:00;13.30;;;2.67;;
52956;SDS011;38819;42.692;23.342;2024-01-27T12:36:26;4.20;;;2.03;;
52956;SDS011;38819;42.692;23.342;2024-01-27T12:38:58;2.95;;;2.00;;
52956;SDS011;38819;42.692;23.342;2024-01-27T12:41:25;8.75;;;2.30;;
52956;SDS011;38819;42.692;23.342;2024-01-27T12:43:51;3.80;;;2.07;;
52956;SDS011;38819;42.692;23.342;2024-01-27T12:46:17;3.58;;;2.00;;
52956;SDS011;38819;42.692;23.342;2024-01-27T12:48:44;3.25;;;2.17;;
52956;SDS011;38819;42.692;23.342;2024-01-27T12:51:10;5.10;;;2.37;;
52956;SDS011;38819;42.692;23.342;2024-01-27T12:53:35;4.60;;;2.40;;
52956;SDS011;38819;42.692;23.342;2024-01-27T12:56:03;4.32;;;2.33;;
52956;SDS011;38819;42.692;23.342;2024-01-27T12:58:29;3.67;;;2.50;;
52956;SDS011;38819;42.692;23.342;2024-01-27T13:00:54;5.63;;;2.63;;
52956;SDS011;38819;42.692;23.342;2024-01-27T13:03:20;3.05;;;2.08;;
52956;SDS011;38819;42.692;23.342;2024-01-27T13:05:45;3.35;;;2.17;;
52956;SDS011;38819;42.692;23.342;2024-01-27T13:08:10;3.53;;;2.00;;
52956;SDS011;38819;42.692;23.342;2024-01-27T13:10:36;2.30;;;2.10;;
52956;SDS011;38819;42.692;23.342;2024-01-27T13:13:01;2.15;;;1.80;;
52956;SDS011;38819;42.692;23.342;2024-01-27T13:15:29;4.57;;;2.05;;
52956;SDS011;38819;42.692;23.342;2024-01-27T13:17:55;4.55;;;1.85;;
52956;SDS011;38819;42.692;23.342;2024-01-27T13:20:20;4.50;;;2.20;;
52956;SDS011;38819;42.692;23.342;2024-01-27T13:22:45;2.85;;;1.75;;
52956;SDS011;38819;42.692;23.342;2024-01-27T13:25:11;3.60;;;2.63;;
52956;SDS011;38819;42.692;23.342;2024-01-27T13:27:36;4.32;;;1.70;;
52956;SDS011;38819;42.692;23.342;2024-01-27T13:30:02;3.03;;;1.90;;
52956;SDS011;38819;42.692;23.342;2024-01-27T13:32:27;3.65;;;2.00;;
52956;SDS011;38819;42.692;23.342;2024-01-27T13:34:53;6.18;;;1.80;;
52956;SDS011;38819;42.692;23.342;2024-01-27T13:37:18;4.07;;;1.88;;
52956;SDS011;38819;42.692;23.342;2024-01-27T13:39:44;4.65;;;2.28;;
52956;SDS011;38819;42.692;23.342;2024-01-27T13:42:10;2.80;;;2.15;;
52956;SDS011;38819;42.692;23.342;2024-01-27T13:44:36;5.50;;;2.10;;
52956;SDS011;38819;42.692;23.342;2024-01-27T13:47:04;4.63;;;3.20;;
52956;SDS011;38819;42.692;23.342;2024-01-27T13:49:31;5.18;;;2.03;;
52956;SDS011;38819;42.692;23.342;2024-01-27T13:51:57;3.83;;;1.70;;
52956;SDS011;38819;42.692;23.342;2024-01-27T13:54:22;2.45;;;1.55;;
52956;SDS011;38819;42.692;23.342;2024-01-27T13:56:47;4.65;;;2.10;;
52956;SDS011;38819;42.692;23.342;2024-01-27T13:59:13;3.60;;;1.95;;
52956;SDS011;38819;42.692;23.342;2024-01-27T14:01:38;5.72;;;1.75;;
52956;SDS011;38819;42.692;23.342;2024-01-27T14:04:04;5.15;;;2.65;;
52956;SDS011;38819;42.692;23.342;2024-01-27T14:06:30;4.30;;;2.42;;
52956;SDS011;38819;42.692;23.342;2024-01-27T14:08:55;3.10;;;2.13;;
52956;SDS011;38819;42.692;23.342;2024-01-27T14:11:21;2.10;;;1.40;;
52956;SDS011;38819;42.692;23.342;2024-01-27T14:13:47;2.80;;;2.30;;
52956;SDS011;38819;42.692;23.342;2024-01-27T14:16:12;8.77;;;2.35;;
52956;SDS011;38819;42.692;23.342;2024-01-27T14:18:38;5.30;;;3.15;;
52956;SDS011;38819;42.692;23.342;2024-01-27T14:21:03;11.35;;;3.17;;
52956;SDS011;38819;42.692;23.342;2024-01-27T14:23:28;8.32;;;3.30;;
52956;SDS011;38819;42.692;23.342;2024-01-27T14:25:54;4.90;;;2.42;;
52956;SDS011;38819;42.692;23.342;2024-01-27T14:28:19;4.95;;;2.47;;